หน้าหลัก
METAR-TAF:

METAR-TAF

ท่าอากาศยาน :

Waterford, ไอร์แลนด์

ละติจูด: 52-11-14N, ลองจิจูด: 7-05-13W, ความสูง: 36 ม.

การสังเกตสภาพอากาศปัจจุบัน

รายงานได้ทำขึ้นเมื่อ 1 ชั่วโมงและ 12 นาทีที่แล้ว ณ เวลา 23:00 UTC
ลม 6 นอตจากเหนือ/ตะวันออกเฉียงเหนือ
อุณหภูมิ 10°C
ความชื้น 71%
ความกดอากาศ 1022 hPa
ทัศนวิสัย 10 กม. หรือมากกว่า
มีเมฆเป็นส่วนมากเว้นเป็นระยะที่ความสูง 4200 ฟุต

METAR: EIWF 182300Z 03006KT 9999 BKN042 10/05 Q1022

เวลา: 01:12 (00:12 UTC)

การพยากรณ์

รายงานได้ทำขึ้นเมื่อ 1 ชั่วโมงและ 12 นาทีที่แล้ว ณ เวลา 23:00 UTC
การพยากรณ์มีผลตั้งแต่วันที่ 19 ณ เวลา 00 UTC จนถึงวันที่ 19 ณ เวลา 09 UTC
ลม 7 นอตจากเหนือ
ทัศนวิสัย 10 กม. หรือมากกว่า
มีเมฆเป็นส่วนมากเว้นเป็นระยะที่ความสูง 4000 ฟุต

TAF: EIWF 182300Z 1900/1909 01007KT 9999 BKN040

สังเกตการณ์สภาพอากาศและพยากรณ์อากาศของสนามบินมากกว่า 4000 แห่ง (รายงาน METAR และ TAF).

สถานีที่ดูได้จะแสดงไว้ด้วยจุดสีเหลืองและสีแดงบนแผนที่.

เลื่อนเมาส์ไปเหนือจุดเพื่อดูชื่อสถานี.

แล้วคลิกเพื่อดูสังเกตการณ์และการพยากรณ์สภาพอากาศ.

ในการเปลี่ยนแผนที่: คลิกที่ปุ่มสีเขียวที่มีกากบาทสีดำเพื่อซูมเข้า; ที่ปุ่มสีเขียวที่มีขีดเพื่อซูมออก; หรือที่ลูกศรสีเขียวเพื่อไปยังแผนที่ที่อยู่ติดกัน.


METAR-TAF: